sensor_id;sensor_type;location;lat;lon;timestamp;pressure;altitude;pressure_sealevel;temperature;humidity
73205;BME280;61413;-27.702;153.216;2024-03-23T00:54:23;102073.48;;;25.02;37.37
73205;BME280;61413;-27.702;153.216;2024-03-23T00:56:51;102066.02;;;25.28;37.11
73205;BME280;61413;-27.702;153.216;2024-03-23T00:59:19;102060.71;;;25.14;37.02
73205;BME280;61413;-27.702;153.216;2024-03-23T01:01:47;102059.10;;;25.36;36.80
73205;BME280;61413;-27.702;153.216;2024-03-23T01:04:15;102051.36;;;25.20;35.78
73205;BME280;61413;-27.702;153.216;2024-03-23T01:06:44;102052.95;;;24.99;35.05
73205;BME280;61413;-27.702;153.216;2024-03-23T01:09:11;102054.65;;;24.93;34.71
73205;BME280;61413;-27.702;153.216;2024-03-23T01:11:40;102041.85;;;24.88;34.67
73205;BME280;61413;-27.702;153.216;2024-03-23T01:15:35;102055.59;;;24.42;35.08
73205;BME280;61413;-27.702;153.216;2024-03-23T01:18:03;102070.99;;;24.25;35.28
73205;BME280;61413;-27.702;153.216;2024-03-23T01:20:31;102073.76;;;24.58;35.45
73205;BME280;61413;-27.702;153.216;2024-03-23T01:22:59;102070.37;;;24.04;35.02
73205;BME280;61413;-27.702;153.216;2024-03-23T01:25:28;102057.52;;;24.27;34.57
73205;BME280;61413;-27.702;153.216;2024-03-23T01:27:56;102054.93;;;24.42;34.76
73205;BME280;61413;-27.702;153.216;2024-03-23T01:30:24;102052.86;;;24.10;34.88
73205;BME280;61413;-27.702;153.216;2024-03-23T01:32:51;102054.24;;;24.43;35.05
73205;BME280;61413;-27.702;153.216;2024-03-23T01:35:19;102054.00;;;23.85;35.00
73205;BME280;61413;-27.702;153.216;2024-03-23T01:37:47;102050.36;;;24.25;35.18
73205;BME280;61413;-27.702;153.216;2024-03-23T01:40:17;102043.13;;;24.30;35.41
73205;BME280;61413;-27.702;153.216;2024-03-23T01:42:41;102041.57;;;24.65;35.55
73205;BME280;61413;-27.702;153.216;2024-03-23T01:45:10;102039.00;;;24.68;35.60
73205;BME280;61413;-27.702;153.216;2024-03-23T01:47:35;102037.68;;;24.75;35.43
73205;BME280;61413;-27.702;153.216;2024-03-23T01:50:03;102035.98;;;25.20;35.13
73205;BME280;61413;-27.702;153.216;2024-03-23T01:52:29;102023.39;;;25.54;34.68
73205;BME280;61413;-27.702;153.216;2024-03-23T01:54:56;102020.82;;;25.99;34.03
73205;BME280;61413;-27.702;153.216;2024-03-23T01:57:24;102014.59;;;26.45;33.65
73205;BME280;61413;-27.702;153.216;2024-03-23T01:59:52;102018.22;;;26.61;33.30
73205;BME280;61413;-27.702;153.216;2024-03-23T02:02:20;102020.07;;;26.71;33.21
73205;BME280;61413;-27.702;153.216;2024-03-23T02:04:48;102016.23;;;26.49;33.29
73205;BME280;61413;-27.702;153.216;2024-03-23T02:07:16;102010.42;;;26.45;33.40
73205;BME280;61413;-27.702;153.216;2024-03-23T02:09:45;102003.78;;;25.88;33.63
73205;BME280;61413;-27.702;153.216;2024-03-23T02:12:11;101995.92;;;25.36;33.68
73205;BME280;61413;-27.702;153.216;2024-03-23T02:14:38;101989.93;;;25.28;34.22
73205;BME280;61413;-27.702;153.216;2024-03-23T02:21:11;101998.06;;;24.74;36.32
73205;BME280;61413;-27.702;153.216;2024-03-23T02:23:38;101999.88;;;24.48;36.84
73205;BME280;61413;-27.702;153.216;2024-03-23T02:26:07;102003.09;;;24.17;36.89
73205;BME280;61413;-27.702;153.216;2024-03-23T02:28:35;102001.31;;;24.25;36.76
73205;BME280;61413;-27.702;153.216;2024-03-23T02:31:03;102001.01;;;24.82;36.72
73205;BME280;61413;-27.702;153.216;2024-03-23T02:33:31;101999.40;;;24.98;36.76
73205;BME280;61413;-27.702;153.216;2024-03-23T02:35:59;101998.27;;;25.33;36.15
73205;BME280;61413;-27.702;153.216;2024-03-23T02:38:27;101989.04;;;25.24;35.50
73205;BME280;61413;-27.702;153.216;2024-03-23T02:41:00;101982.90;;;25.31;34.80
73205;BME280;61413;-27.702;153.216;2024-03-23T02:43:22;101978.78;;;25.87;34.54
73205;BME280;61413;-27.702;153.216;2024-03-23T02:45:49;101974.50;;;26.13;33.63
73205;BME280;61413;-27.702;153.216;2024-03-23T02:48:17;101968.14;;;26.21;32.78
73205;BME280;61413;-27.702;153.216;2024-03-23T02:50:45;101957.01;;;26.54;32.41
73205;BME280;61413;-27.702;153.216;2024-03-23T02:53:12;101948.25;;;26.79;32.50
73205;BME280;61413;-27.702;153.216;2024-03-23T02:55:41;101942.91;;;26.88;32.45
73205;BME280;61413;-27.702;153.216;2024-03-23T02:58:08;101936.79;;;26.45;32.11
73205;BME280;61413;-27.702;153.216;2024-03-23T03:00:36;101935.20;;;26.69;32.40
73205;BME280;61413;-27.702;153.216;2024-03-23T03:03:04;101932.99;;;26.70;32.23
73205;BME280;61413;-27.702;153.216;2024-03-23T03:05:32;101930.38;;;27.30;32.41
73205;BME280;61413;-27.702;153.216;2024-03-23T03:10:11;101931.64;;;27.68;32.24
73205;BME280;61413;-27.702;153.216;2024-03-23T03:15:33;101929.36;;;25.91;33.51
73205;BME280;61413;-27.702;153.216;2024-03-23T03:18:02;101923.29;;;25.55;34.43
73205;BME280;61413;-27.702;153.216;2024-03-23T03:20:30;101923.77;;;24.94;35.28
73205;BME280;61413;-27.702;153.216;2024-03-23T03:25:02;101920.98;;;24.82;36.41
73205;BME280;61413;-27.702;153.216;2024-03-23T03:29:27;101924.10;;;24.74;36.65
73205;BME280;61413;-27.702;153.216;2024-03-23T03:34:50;101908.70;;;24.78;36.78
73205;BME280;61413;-27.702;153.216;2024-03-23T03:37:18;101905.78;;;25.00;36.62
73205;BME280;61413;-27.702;153.216;2024-03-23T03:39:46;101912.18;;;24.88;36.63
73205;BME280;61413;-27.702;153.216;2024-03-23T03:42:14;101915.37;;;24.91;36.40
73205;BME280;61413;-27.702;153.216;2024-03-23T03:44:42;101912.46;;;25.21;36.36
73205;BME280;61413;-27.702;153.216;2024-03-23T03:47:10;101917.19;;;25.41;35.97
73205;BME280;61413;-27.702;153.216;2024-03-23T03:49:38;101916.69;;;25.64;35.83
73205;BME280;61413;-27.702;153.216;2024-03-23T03:52:04;101910.62;;;25.83;35.92
73205;BME280;61413;-27.702;153.216;2024-03-23T03:54:32;101910.33;;;26.15;35.30
73205;BME280;61413;-27.702;153.216;2024-03-23T03:57:00;101916.54;;;25.94;35.40
73205;BME280;61413;-27.702;153.216;2024-03-23T03:59:28;101910.31;;;25.64;35.66
73205;BME280;61413;-27.702;153.216;2024-03-23T04:01:56;101912.27;;;25.47;35.84
73205;BME280;61413;-27.702;153.216;2024-03-23T04:04:24;101911.30;;;25.24;35.87
73205;BME280;61413;-27.702;153.216;2024-03-23T04:07:00;101907.35;;;24.94;35.92
73205;BME280;61413;-27.702;153.216;2024-03-23T04:09:20;101911.72;;;24.62;36.18
73205;BME280;61413;-27.702;153.216;2024-03-23T04:11:48;101914.01;;;24.62;36.61
73205;BME280;61413;-27.702;153.216;2024-03-23T04:14:16;101906.11;;;24.82;36.70
73205;BME280;61413;-27.702;153.216;2024-03-23T04:16:44;101903.26;;;24.64;36.82
73205;BME280;61413;-27.702;153.216;2024-03-23T04:19:09;101906.09;;;24.45;37.07
73205;BME280;61413;-27.702;153.216;2024-03-23T04:23:55;101914.05;;;24.66;37.66
73205;BME280;61413;-27.702;153.216;2024-03-23T04:27:21;101904.25;;;24.55;37.61
73205;BME280;61413;-27.702;153.216;2024-03-23T04:29:50;101893.26;;;24.37;37.14
73205;BME280;61413;-27.702;153.216;2024-03-23T04:32:14;101889.30;;;24.70;36.97
73205;BME280;61413;-27.702;153.216;2024-03-23T04:34:42;101886.51;;;24.54;36.78
73205;BME280;61413;-27.702;153.216;2024-03-23T04:37:11;101888.05;;;24.57;36.67
73205;BME280;61413;-27.702;153.216;2024-03-23T04:39:39;101887.74;;;24.60;36.64
73205;BME280;61413;-27.702;153.216;2024-03-23T04:42:08;101885.74;;;24.45;36.78
73205;BME280;61413;-27.702;153.216;2024-03-23T04:44:35;101889.21;;;24.28;37.00
73205;BME280;61413;-27.702;153.216;2024-03-23T04:47:03;101894.03;;;24.43;36.84
73205;BME280;61413;-27.702;153.216;2024-03-23T04:49:31;101901.58;;;24.27;36.91
73205;BME280;61413;-27.702;153.216;2024-03-23T04:51:59;101905.91;;;24.11;36.83
73205;BME280;61413;-27.702;153.216;2024-03-23T04:54:27;101905.70;;;24.05;36.77
73205;BME280;61413;-27.702;153.216;2024-03-23T04:56:55;101898.63;;;23.93;36.97
73205;BME280;61413;-27.702;153.216;2024-03-23T04:59:23;101891.11;;;23.93;36.93
73205;BME280;61413;-27.702;153.216;2024-03-23T05:01:51;101888.93;;;23.56;37.25
73205;BME280;61413;-27.702;153.216;2024-03-23T05:04:19;101892.42;;;23.76;37.55
73205;BME280;61413;-27.702;153.216;2024-03-23T05:06:47;101901.47;;;23.61;37.80
73205;BME280;61413;-27.702;153.216;2024-03-23T05:09:15;101909.98;;;23.30;37.91
73205;BME280;61413;-27.702;153.216;2024-03-23T05:11:43;101921.28;;;23.26;38.07
73205;BME280;61413;-27.702;153.216;2024-03-23T05:14:12;101926.11;;;23.26;38.20
73205;BME280;61413;-27.702;153.216;2024-03-23T05:16:36;101926.48;;;23.22;38.56
73205;BME280;61413;-27.702;153.216;2024-03-23T05:19:04;101927.54;;;22.91;38.61
73205;BME280;61413;-27.702;153.216;2024-03-23T05:21:32;101932.41;;;22.90;38.61
73205;BME280;61413;-27.702;153.216;2024-03-23T05:24:01;101935.57;;;23.13;38.66
73205;BME280;61413;-27.702;153.216;2024-03-23T05:26:28;101935.88;;;22.83;38.77
73205;BME280;61413;-27.702;153.216;2024-03-23T05:28:56;101936.90;;;22.48;39.14
73205;BME280;61413;-27.702;153.216;2024-03-23T05:31:26;101935.19;;;22.61;39.26
73205;BME280;61413;-27.702;153.216;2024-03-23T05:34:37;101940.74;;;22.41;39.54
73205;BME280;61413;-27.702;153.216;2024-03-23T05:37:04;101935.73;;;22.41;39.73
73205;BME280;61413;-27.702;153.216;2024-03-23T05:39:33;101938.33;;;22.37;39.77
73205;BME280;61413;-27.702;153.216;2024-03-23T05:42:00;101940.66;;;22.58;39.85
73205;BME280;61413;-27.702;153.216;2024-03-23T05:44:28;101946.10;;;22.24;39.81
73205;BME280;61413;-27.702;153.216;2024-03-23T05:46:57;101949.13;;;22.37;40.05
73205;BME280;61413;-27.702;153.216;2024-03-23T05:49:25;101953.51;;;22.15;40.10
73205;BME280;61413;-27.702;153.216;2024-03-23T05:51:53;101956.94;;;22.12;40.11
73205;BME280;61413;-27.702;153.216;2024-03-23T05:54:21;101963.42;;;22.28;40.18
73205;BME280;61413;-27.702;153.216;2024-03-23T05:56:48;101969.16;;;22.39;40.38
73205;BME280;61413;-27.702;153.216;2024-03-23T05:59:18;101967.25;;;22.39;40.30
73205;BME280;61413;-27.702;153.216;2024-03-23T06:01:42;101964.67;;;22.88;40.18
73205;BME280;61413;-27.702;153.216;2024-03-23T06:04:09;101963.95;;;22.99;40.19
73205;BME280;61413;-27.702;153.216;2024-03-23T06:06:37;101969.50;;;23.01;40.13
73205;BME280;61413;-27.702;153.216;2024-03-23T06:09:05;101972.71;;;22.96;40.04
73205;BME280;61413;-27.702;153.216;2024-03-23T06:11:33;101971.63;;;22.66;39.99
73205;BME280;61413;-27.702;153.216;2024-03-23T06:14:01;101969.33;;;22.82;39.82
73205;BME280;61413;-27.702;153.216;2024-03-23T06:16:29;101975.93;;;22.63;39.87
73205;BME280;61413;-27.702;153.216;2024-03-23T06:18:57;101987.13;;;22.60;40.02
73205;BME280;61413;-27.702;153.216;2024-03-23T06:21:25;101988.43;;;22.20;40.26
73205;BME280;61413;-27.702;153.216;2024-03-23T06:25:36;101973.85;;;22.11;41.14
73205;BME280;61413;-27.702;153.216;2024-03-23T06:28:03;101973.99;;;21.88;41.45
73205;BME280;61413;-27.702;153.216;2024-03-23T06:30:31;101976.43;;;21.80;41.70
73205;BME280;61413;-27.702;153.216;2024-03-23T06:32:59;101984.34;;;21.92;42.05
73205;BME280;61413;-27.702;153.216;2024-03-23T06:35:27;101991.61;;;21.73;42.20
73205;BME280;61413;-27.702;153.216;2024-03-23T06:37:54;101992.39;;;21.66;42.23
73205;BME280;61413;-27.702;153.216;2024-03-23T06:42:09;101988.35;;;21.31;42.61
73205;BME280;61413;-27.702;153.216;2024-03-23T06:44:36;101994.65;;;21.38;42.64
73205;BME280;61413;-27.702;153.216;2024-03-23T06:47:04;101993.87;;;21.28;42.61
73205;BME280;61413;-27.702;153.216;2024-03-23T06:49:32;101993.80;;;21.65;42.41
73205;BME280;61413;-27.702;153.216;2024-03-23T06:52:00;101991.11;;;21.65;42.50
73205;BME280;61413;-27.702;153.216;2024-03-23T06:54:28;101993.31;;;21.53;42.39
73205;BME280;61413;-27.702;153.216;2024-03-23T06:58:41;101988.88;;;21.65;42.19
73205;BME280;61413;-27.702;153.216;2024-03-23T07:01:09;101987.35;;;21.26;42.06
73205;BME280;61413;-27.702;153.216;2024-03-23T07:03:37;101986.37;;;21.36;41.80
73205;BME280;61413;-27.702;153.216;2024-03-23T07:06:05;101986.48;;;21.51;41.66
73205;BME280;61413;-27.702;153.216;2024-03-23T07:08:33;101990.15;;;21.47;41.64
73205;BME280;61413;-27.702;153.216;2024-03-23T07:11:01;101994.65;;;21.60;41.44
73205;BME280;61413;-27.702;153.216;2024-03-23T07:13:29;101991.43;;;21.71;41.34
73205;BME280;61413;-27.702;153.216;2024-03-23T07:15:57;101986.22;;;21.57;41.03
73205;BME280;61413;-27.702;153.216;2024-03-23T07:18:25;101986.67;;;21.45;41.07
73205;BME280;61413;-27.702;153.216;2024-03-23T07:20:55;101986.08;;;21.79;41.10
73205;BME280;61413;-27.702;153.216;2024-03-23T07:23:19;101983.65;;;21.53;41.22
73205;BME280;61413;-27.702;153.216;2024-03-23T07:25:59;101985.04;;;21.48;41.54
73205;BME280;61413;-27.702;153.216;2024-03-23T07:28:15;101989.86;;;21.25;41.77
73205;BME280;61413;-27.702;153.216;2024-03-23T07:30:43;101995.21;;;21.32;41.62
73205;BME280;61413;-27.702;153.216;2024-03-23T07:33:11;101996.76;;;21.48;41.30
73205;BME280;61413;-27.702;153.216;2024-03-23T07:35:38;101998.12;;;21.55;41.34
73205;BME280;61413;-27.702;153.216;2024-03-23T07:38:06;101998.05;;;21.63;41.36
73205;BME280;61413;-27.702;153.216;2024-03-23T07:40:34;101998.11;;;21.36;41.55
73205;BME280;61413;-27.702;153.216;2024-03-23T07:43:01;101994.93;;;21.24;41.72
73205;BME280;61413;-27.702;153.216;2024-03-23T07:45:30;101995.95;;;21.47;42.04
73205;BME280;61413;-27.702;153.216;2024-03-23T07:47:54;102001.52;;;21.49;42.25
73205;BME280;61413;-27.702;153.216;2024-03-23T07:50:21;102000.27;;;20.90;42.60
73205;BME280;61413;-27.702;153.216;2024-03-23T07:54:53;101991.61;;;21.18;43.63
73205;BME280;61413;-27.702;153.216;2024-03-23T07:57:21;102004.79;;;20.28;44.46
73205;BME280;61413;-27.702;153.216;2024-03-23T07:59:49;102009.72;;;20.31;45.02
73205;BME280;61413;-27.702;153.216;2024-03-23T08:02:16;102013.95;;;20.37;45.01
73205;BME280;61413;-27.702;153.216;2024-03-23T08:04:44;102025.86;;;20.34;45.04
73205;BME280;61413;-27.702;153.216;2024-03-23T08:07:12;102038.07;;;19.99;45.55
73205;BME280;61413;-27.702;153.216;2024-03-23T08:09:40;102051.17;;;19.97;45.75
73205;BME280;61413;-27.702;153.216;2024-03-23T08:12:08;102067.93;;;19.97;46.07
73205;BME280;61413;-27.702;153.216;2024-03-23T08:14:36;102081.89;;;20.18;45.91
73205;BME280;61413;-27.702;153.216;2024-03-23T08:17:03;102090.43;;;20.64;45.85
73205;BME280;61413;-27.702;153.216;2024-03-23T08:19:31;102097.57;;;20.25;45.82
73205;BME280;61413;-27.702;153.216;2024-03-23T08:21:58;102106.31;;;20.33;45.77
73205;BME280;61413;-27.702;153.216;2024-03-23T08:24:26;102117.07;;;20.28;45.62
73205;BME280;61413;-27.702;153.216;2024-03-23T08:27:36;102129.77;;;20.18;45.59
73205;BME280;61413;-27.702;153.216;2024-03-23T08:30:05;102139.39;;;20.31;45.55
73205;BME280;61413;-27.702;153.216;2024-03-23T08:32:32;102147.70;;;20.49;45.85
73205;BME280;61413;-27.702;153.216;2024-03-23T08:35:01;102151.86;;;20.48;45.60
73205;BME280;61413;-27.702;153.216;2024-03-23T08:38:08;102153.76;;;20.42;45.68
73205;BME280;61413;-27.702;153.216;2024-03-23T08:40:41;102154.16;;;20.42;46.06
73205;BME280;61413;-27.702;153.216;2024-03-23T08:43:01;102150.80;;;20.09;46.32
73205;BME280;61413;-27.702;153.216;2024-03-23T08:45:30;102150.35;;;20.47;46.21
73205;BME280;61413;-27.702;153.216;2024-03-23T08:47:58;102144.71;;;20.16;46.38
73205;BME280;61413;-27.702;153.216;2024-03-23T08:50:23;102132.44;;;20.48;46.38
73205;BME280;61413;-27.702;153.216;2024-03-23T08:52:53;102125.18;;;20.21;46.42
73205;BME280;61413;-27.702;153.216;2024-03-23T08:55:17;102118.60;;;19.96;46.57
73205;BME280;61413;-27.702;153.216;2024-03-23T08:57:45;102110.84;;;20.03;46.85
73205;BME280;61413;-27.702;153.216;2024-03-23T09:00:14;102097.69;;;19.77;47.28
73205;BME280;61413;-27.702;153.216;2024-03-23T09:02:39;102087.05;;;19.78;47.47
73205;BME280;61413;-27.702;153.216;2024-03-23T09:05:07;102078.23;;;19.83;47.83
73205;BME280;61413;-27.702;153.216;2024-03-23T09:07:32;102072.09;;;19.80;48.31
73205;BME280;61413;-27.702;153.216;2024-03-23T09:10:00;102070.42;;;19.40;48.44
73205;BME280;61413;-27.702;153.216;2024-03-23T09:12:28;102063.45;;;19.60;48.67
73205;BME280;61413;-27.702;153.216;2024-03-23T09:17:08;102055.53;;;19.48;49.43
73205;BME280;61413;-27.702;153.216;2024-03-23T09:19:36;102052.30;;;19.47;49.31
73205;BME280;61413;-27.702;153.216;2024-03-23T09:22:04;102050.46;;;19.43;49.49
73205;BME280;61413;-27.702;153.216;2024-03-23T09:24:31;102050.37;;;19.35;49.53
73205;BME280;61413;-27.702;153.216;2024-03-23T09:26:59;102045.69;;;19.67;49.38
73205;BME280;61413;-27.702;153.216;2024-03-23T09:31:39;102037.34;;;19.36;50.34
73205;BME280;61413;-27.702;153.216;2024-03-23T09:34:03;102028.93;;;19.40;50.04
73205;BME280;61413;-27.702;153.216;2024-03-23T09:36:31;102030.37;;;19.43;49.74
73205;BME280;61413;-27.702;153.216;2024-03-23T09:38:59;102030.16;;;19.53;49.67
73205;BME280;61413;-27.702;153.216;2024-03-23T09:41:28;102033.71;;;19.65;49.57
73205;BME280;61413;-27.702;153.216;2024-03-23T09:43:55;102039.38;;;19.92;49.52
73205;BME280;61413;-27.702;153.216;2024-03-23T09:46:23;102043.08;;;19.65;49.60
73205;BME280;61413;-27.702;153.216;2024-03-23T09:48:51;102040.77;;;19.56;49.65
73205;BME280;61413;-27.702;153.216;2024-03-23T09:51:20;102036.86;;;19.29;49.92
73205;BME280;61413;-27.702;153.216;2024-03-23T09:53:49;102033.99;;;19.51;49.99
73205;BME280;61413;-27.702;153.216;2024-03-23T09:56:14;102027.30;;;19.82;49.95
73205;BME280;61413;-27.702;153.216;2024-03-23T10:01:22;102034.72;;;19.50;50.37
73205;BME280;61413;-27.702;153.216;2024-03-23T10:03:50;102037.14;;;19.58;50.17
73205;BME280;61413;-27.702;153.216;2024-03-23T10:06:23;102032.87;;;19.43;49.78
73205;BME280;61413;-27.702;153.216;2024-03-23T10:09:56;102038.94;;;19.34;49.93
73205;BME280;61413;-27.702;153.216;2024-03-23T10:12:25;102047.55;;;19.68;50.05
73205;BME280;61413;-27.702;153.216;2024-03-23T10:14:53;102054.30;;;19.79;50.33
73205;BME280;61413;-27.702;153.216;2024-03-23T10:17:22;102055.25;;;19.76;50.19
73205;BME280;61413;-27.702;153.216;2024-03-23T10:19:47;102053.22;;;19.61;50.29
73205;BME280;61413;-27.702;153.216;2024-03-23T10:22:18;102048.27;;;19.93;50.32
73205;BME280;61413;-27.702;153.216;2024-03-23T10:24:38;102045.53;;;19.94;50.31
73205;BME280;61413;-27.702;153.216;2024-03-23T10:27:06;102041.49;;;19.78;50.55
73205;BME280;61413;-27.702;153.216;2024-03-23T10:29:34;102042.03;;;19.87;50.48
73205;BME280;61413;-27.702;153.216;2024-03-23T10:32:17;102038.27;;;19.84;50.39
73205;BME280;61413;-27.702;153.216;2024-03-23T10:34:30;102038.96;;;19.79;50.32
73205;BME280;61413;-27.702;153.216;2024-03-23T10:36:58;102040.72;;;19.96;50.56
73205;BME280;61413;-27.702;153.216;2024-03-23T10:39:26;102039.18;;;19.57;50.56
73205;BME280;61413;-27.702;153.216;2024-03-23T10:41:55;102032.74;;;19.73;50.45
73205;BME280;61413;-27.702;153.216;2024-03-23T10:44:21;102036.14;;;19.70;50.58
73205;BME280;61413;-27.702;153.216;2024-03-23T10:46:45;102036.16;;;19.85;50.39
73205;BME280;61413;-27.702;153.216;2024-03-23T10:49:13;102031.74;;;19.74;50.55
73205;BME280;61413;-27.702;153.216;2024-03-23T10:51:41;102027.06;;;19.94;50.69
73205;BME280;61413;-27.702;153.216;2024-03-23T10:55:20;102024.27;;;19.84;50.83
73205;BME280;61413;-27.702;153.216;2024-03-23T10:57:48;102024.42;;;19.97;50.72
73205;BME280;61413;-27.702;153.216;2024-03-23T11:00:13;102018.14;;;20.10;50.59
73205;BME280;61413;-27.702;153.216;2024-03-23T11:02:38;102015.25;;;20.14;50.69
73205;BME280;61413;-27.702;153.216;2024-03-23T11:05:56;102013.57;;;20.02;50.67
73205;BME280;61413;-27.702;153.216;2024-03-23T11:08:33;102014.79;;;20.16;50.51
73205;BME280;61413;-27.702;153.216;2024-03-23T11:10:50;102016.04;;;20.15;50.31
73205;BME280;61413;-27.702;153.216;2024-03-23T11:13:23;102016.27;;;20.39;50.25
73205;BME280;61413;-27.702;153.216;2024-03-23T11:15:44;102014.04;;;20.32;50.14
73205;BME280;61413;-27.702;153.216;2024-03-23T11:18:11;102016.84;;;20.28;50.11
73205;BME280;61413;-27.702;153.216;2024-03-23T11:22:50;102022.96;;;20.60;50.22
73205;BME280;61413;-27.702;153.216;2024-03-23T11:25:19;102032.51;;;20.49;50.24
73205;BME280;61413;-27.702;153.216;2024-03-23T11:27:44;102033.38;;;20.45;50.35
73205;BME280;61413;-27.702;153.216;2024-03-23T11:30:17;102026.12;;;20.08;50.28
73205;BME280;61413;-27.702;153.216;2024-03-23T11:32:37;102020.11;;;20.72;50.01
73205;BME280;61413;-27.702;153.216;2024-03-23T11:35:04;102020.20;;;20.41;49.98
73205;BME280;61413;-27.702;153.216;2024-03-23T11:37:32;102020.62;;;20.33;50.02
73205;BME280;61413;-27.702;153.216;2024-03-23T11:40:00;102016.59;;;20.37;49.80
73205;BME280;61413;-27.702;153.216;2024-03-23T11:42:27;102016.02;;;20.48;49.76
73205;BME280;61413;-27.702;153.216;2024-03-23T11:44:55;102018.35;;;20.43;49.83
73205;BME280;61413;-27.702;153.216;2024-03-23T11:47:22;102026.03;;;20.49;49.69
73205;BME280;61413;-27.702;153.216;2024-03-23T11:49:50;102033.95;;;20.08;49.62
73205;BME280;61413;-27.702;153.216;2024-03-23T11:57:02;102035.36;;;20.50;50.11
73205;BME280;61413;-27.702;153.216;2024-03-23T11:59:34;102032.41;;;20.20;50.05
73205;BME280;61413;-27.702;153.216;2024-03-23T12:01:55;102029.43;;;20.28;49.95
73205;BME280;61413;-27.702;153.216;2024-03-23T12:04:27;102025.09;;;20.50;49.73
73205;BME280;61413;-27.702;153.216;2024-03-23T12:06:51;102024.41;;;20.36;49.56
73205;BME280;61413;-27.702;153.216;2024-03-23T12:09:28;102029.48;;;20.24;49.62
73205;BME280;61413;-27.702;153.216;2024-03-23T12:11:44;102025.56;;;20.41;49.64
73205;BME280;61413;-27.702;153.216;2024-03-23T12:14:14;102027.87;;;20.07;49.52
73205;BME280;61413;-27.702;153.216;2024-03-23T12:16:38;102032.58;;;20.11;49.59
73205;BME280;61413;-27.702;153.216;2024-03-23T12:19:07;102039.53;;;20.11;49.67
73205;BME280;61413;-27.702;153.216;2024-03-23T12:21:31;102040.45;;;20.25;49.58
73205;BME280;61413;-27.702;153.216;2024-03-23T12:23:59;102041.04;;;20.51;49.34
73205;BME280;61413;-27.702;153.216;2024-03-23T12:26:26;102039.75;;;20.32;49.27
73205;BME280;61413;-27.702;153.216;2024-03-23T12:28:53;102042.15;;;20.59;49.32
73205;BME280;61413;-27.702;153.216;2024-03-23T12:31:21;102041.48;;;19.95;49.34
73205;BME280;61413;-27.702;153.216;2024-03-23T12:36:11;102035.59;;;20.32;49.43
73205;BME280;61413;-27.702;153.216;2024-03-23T12:38:38;102033.06;;;20.70;49.22
73205;BME280;61413;-27.702;153.216;2024-03-23T12:41:06;102026.50;;;20.47;49.01
73205;BME280;61413;-27.702;153.216;2024-03-23T12:43:34;102027.43;;;20.22;48.60
73205;BME280;61413;-27.702;153.216;2024-03-23T12:46:01;102031.87;;;20.11;49.09
73205;BME280;61413;-27.702;153.216;2024-03-23T12:48:29;102033.42;;;20.00;48.83
73205;BME280;61413;-27.702;153.216;2024-03-23T12:50:56;102032.80;;;20.33;48.80
73205;BME280;61413;-27.702;153.216;2024-03-23T12:55:42;102033.27;;;19.95;49.24
73205;BME280;61413;-27.702;153.216;2024-03-23T12:58:09;102031.82;;;20.12;49.12
73205;BME280;61413;-27.702;153.216;2024-03-23T13:00:37;102026.32;;;20.17;49.16
73205;BME280;61413;-27.702;153.216;2024-03-23T13:03:04;102027.39;;;20.46;48.91
73205;BME280;61413;-27.702;153.216;2024-03-23T13:05:32;102022.69;;;20.30;49.06
73205;BME280;61413;-27.702;153.216;2024-03-23T13:08:00;102017.92;;;20.34;48.77
73205;BME280;61413;-27.702;153.216;2024-03-23T13:10:28;102011.31;;;20.45;48.69
73205;BME280;61413;-27.702;153.216;2024-03-23T13:12:56;102006.31;;;20.22;48.74
73205;BME280;61413;-27.702;153.216;2024-03-23T13:15:23;102005.47;;;20.32;48.59
73205;BME280;61413;-27.702;153.216;2024-03-23T13:17:51;102005.26;;;19.55;48.85
73205;BME280;61413;-27.702;153.216;2024-03-23T13:20:18;102004.74;;;19.91;48.77
73205;BME280;61413;-27.702;153.216;2024-03-23T13:22:46;102002.96;;;20.19;48.67
73205;BME280;61413;-27.702;153.216;2024-03-23T13:25:14;102000.85;;;20.24;48.77
73205;BME280;61413;-27.702;153.216;2024-03-23T13:27:41;101993.60;;;19.97;48.80
73205;BME280;61413;-27.702;153.216;2024-03-23T13:30:10;101985.84;;;19.99;48.74
73205;BME280;61413;-27.702;153.216;2024-03-23T13:35:24;101985.10;;;19.97;49.00
73205;BME280;61413;-27.702;153.216;2024-03-23T13:37:52;101981.37;;;20.09;48.83
73205;BME280;61413;-27.702;153.216;2024-03-23T13:40:20;101978.72;;;20.05;48.63
73205;BME280;61413;-27.702;153.216;2024-03-23T13:42:47;101979.41;;;20.18;48.44
73205;BME280;61413;-27.702;153.216;2024-03-23T13:45:16;101981.43;;;19.77;48.42
73205;BME280;61413;-27.702;153.216;2024-03-23T13:47:43;101982.47;;;20.02;48.31
73205;BME280;61413;-27.702;153.216;2024-03-23T13:50:11;101979.80;;;20.18;48.24
73205;BME280;61413;-27.702;153.216;2024-03-23T13:52:38;101978.87;;;20.01;48.15
73205;BME280;61413;-27.702;153.216;2024-03-23T13:55:07;101984.61;;;19.81;48.30
73205;BME280;61413;-27.702;153.216;2024-03-23T13:57:34;101979.86;;;20.28;48.42
73205;BME280;61413;-27.702;153.216;2024-03-23T14:00:02;101963.68;;;20.00;47.92
73205;BME280;61413;-27.702;153.216;2024-03-23T14:02:30;101961.24;;;16.75;47.38
73205;BME280;61413;-27.702;153.216;2024-03-23T14:04:58;101966.33;;;20.24;46.82
73205;BME280;61413;-27.702;153.216;2024-03-23T14:07:25;101966.97;;;20.09;47.02
73205;BME280;61413;-27.702;153.216;2024-03-23T14:10:37;101962.14;;;20.26;47.45